Flight Number: AVA1187 Duration: 1:15
Departure: Edinburgh Airport (EGPH) at 05:45 Distance: 385.797 Nm
Arrival: Vagar (EKVG) at 07:00 Equipment: A321

Weather Information
Edinburgh Airport, United Kingdom (EGPH) 55-57N 003-21W 0M Jun 19, 2024 - 08:20 AM EDT / 2024.06.19 1220 UTC
Wind: from the W (260 degrees) at 6 MPH (5 KT) (direction variable):0
Visibility: greater than 7 mile(s):0
Sky conditions: partly cloudy Temperature: 60 F (16 C) Dew Point: 51 F (11 C) Relative Humidity: 72% Pressure (altimeter): 30.15 in. Hg (1021 hPa)
ob: EGPH 191220Z 26005KT 220V300 9999 FEW026 SCT036 16/11 Q1021 cycle: 12
Sunrise: 03:32 Sunset: 20:57 (UTC)

Soervaag / Vagar, Denmark (EKVG) 62-04N 007-17W 92M Jun 19, 2024 - 08:20 AM EDT / 2024.06.19 1220 UTC
Wind: from the SSW (200 degrees) at 17 MPH (15 KT):0
Visibility: 3 mile(s):0
Sky conditions: overcast Weather: light rain Temperature: 48 F (9 C) Dew Point: 48 F (9 C) Relative Humidity: 100% Pressure (altimeter): 29.71 in. Hg (1006 hPa)
ob: EKVG 191220Z AUTO 20015KT 5000 -RA OVC003/// 09/09 Q1006 RMK OVC005/// WIND SKEID VRB10G25KT cycle: 12
Sunrise: 02:47 Sunset: 22:14 (UTC)

TAF:2023/02/12 15:15 TAF COR TAF COR EKVG 121514Z 1215/1303 22015G28KT 9999 OVC012 TEMPO 1215/1224 4500 DZ BR OVC007

This route has never been flown.

Route map